createdAt,value
2022-11-10T00:00:16.275Z,1591.88
2022-11-10T00:03:05.571Z,1593.95
2022-11-10T00:05:52.185Z,1580.88
2022-11-10T00:08:39.347Z,1584.07
2022-11-10T00:11:26.326Z,1578.70
2022-11-10T00:14:30.653Z,1580.78
2022-11-10T00:17:17.449Z,1575.10
2022-11-10T00:20:06.979Z,1580.15
2022-11-10T00:22:55.759Z,1587.25
2022-11-10T00:25:42.392Z,1586.63
2022-11-10T00:28:31.680Z,1581.70
2022-11-10T00:31:18.455Z,1579.80
2022-11-10T00:34:05.436Z,1581.13
2022-11-10T00:36:53.216Z,1581.07
2022-11-10T00:39:39.958Z,1579.40
2022-11-10T00:42:26.370Z,1588.15
2022-11-10T00:45:12.767Z,1576.82
2022-11-10T00:47:59.399Z,1590.13
2022-11-10T00:50:52.930Z,1573.50
2022-11-10T00:53:40.959Z,1572.00
2022-11-10T00:56:27.748Z,1575.13
2022-11-10T00:59:14.917Z,1578.57
2022-11-10T01:02:01.498Z,1580.07
2022-11-10T01:04:48.298Z,1583.07
2022-11-10T01:07:34.788Z,1584.75
2022-11-10T01:10:22.708Z,1577.47
2022-11-10T01:13:09.331Z,1574.47
2022-11-10T01:15:55.727Z,1575.95
2022-11-10T01:18:42.945Z,1583.00
2022-11-10T01:21:30.971Z,1583.28
2022-11-10T01:24:21.666Z,1583.45
2022-11-10T01:27:09.619Z,1588.35
2022-11-10T01:29:56.090Z,1594.22
2022-11-10T01:32:42.644Z,1591.53
2022-11-10T01:35:29.037Z,1594.25
2022-11-10T01:38:15.991Z,1590.93
2022-11-10T01:41:02.696Z,1591.28
2022-11-10T01:43:50.594Z,1584.32
2022-11-10T01:46:37.439Z,1593.97
2022-11-10T01:49:26.066Z,1589.38
2022-11-10T01:52:15.632Z,1588.03
2022-11-10T01:55:02.027Z,1588.75
2022-11-10T01:57:48.921Z,1593.82
2022-11-10T02:00:37.073Z,1589.25
2022-11-10T02:03:31.739Z,1586.50
2022-11-10T02:06:19.772Z,1587.75
2022-11-10T02:09:06.566Z,1578.82
2022-11-10T02:11:55.993Z,1587.95
2022-11-10T02:14:43.041Z,1584.77
2022-11-10T02:17:30.888Z,1584.00
2022-11-10T02:20:20.471Z,1587.90
2022-11-10T02:23:36.273Z,1586.80
2022-11-10T02:26:25.706Z,1587.68
2022-11-10T02:29:12.248Z,1582.80
2022-11-10T02:31:58.799Z,1585.22
2022-11-10T02:34:45.376Z,1581.05
2022-11-10T02:37:31.840Z,1583.80
2022-11-10T02:40:19.877Z,1585.05
2022-11-10T02:43:11.498Z,1586.28
2022-11-10T02:45:58.163Z,1585.18
2022-11-10T02:48:45.198Z,1587.57
2022-11-10T02:51:31.728Z,1582.07
2022-11-10T02:54:18.604Z,1585.85
2022-11-10T02:57:06.452Z,1581.72
2022-11-10T02:59:53.091Z,1599.30
2022-11-10T03:02:39.654Z,1584.88
2022-11-10T03:05:26.405Z,1587.65
2022-11-10T03:08:13.265Z,1582.03
2022-11-10T03:11:00.159Z,1585.15
2022-11-10T03:14:01.543Z,1589.47
2022-11-10T03:16:48.738Z,1582.97
2022-11-10T03:19:35.248Z,1585.50
2022-11-10T03:22:22.897Z,1580.82
2022-11-10T03:25:10.830Z,1582.18
2022-11-10T03:31:10.541Z,1583.75
2022-11-10T03:33:57.172Z,1579.65
2022-11-10T03:36:43.752Z,1588.45
2022-11-10T03:39:30.259Z,1584.78
2022-11-10T03:42:16.858Z,1586.55
2022-11-10T03:45:03.525Z,1582.50
2022-11-10T03:47:51.569Z,1586.85
2022-11-10T03:50:38.387Z,1584.45
2022-11-10T03:53:25.141Z,1587.43
2022-11-10T03:56:13.246Z,1586.72
2022-11-10T03:58:59.851Z,1585.18
2022-11-10T04:01:46.490Z,1583.03
2022-11-10T04:04:57.658Z,1584.93
2022-11-10T04:08:02.136Z,1581.65
2022-11-10T04:10:51.267Z,1580.35
2022-11-10T04:13:55.126Z,1597.07
2022-11-10T04:16:41.817Z,1564.18
2022-11-10T04:19:28.372Z,1560.30
2022-11-10T04:22:36.038Z,1572.28
2022-11-10T04:25:22.754Z,1578.82
2022-11-10T04:28:09.732Z,1590.20
2022-11-10T04:30:56.343Z,1580.32
2022-11-10T04:33:44.533Z,1583.40
2022-11-10T04:36:33.259Z,1587.20
2022-11-10T04:39:21.538Z,1584.20
2022-11-10T04:42:08.096Z,1577.40
2022-11-10T04:44:54.502Z,1578.35
2022-11-10T04:47:41.007Z,1579.88
2022-11-10T04:50:27.516Z,1577.68
2022-11-10T04:53:14.158Z,1580.60
2022-11-10T04:56:02.062Z,1580.65
2022-11-10T04:58:49.462Z,1587.10
2022-11-10T05:01:35.952Z,1582.75
2022-11-10T05:04:22.632Z,1577.30
2022-11-10T05:07:09.719Z,1577.68
2022-11-10T05:09:56.716Z,1582.85
2022-11-10T05:12:44.655Z,1582.53
2022-11-10T05:15:33.032Z,1586.27
2022-11-10T05:18:19.877Z,1587.32
2022-11-10T05:21:06.772Z,1585.30
2022-11-10T05:23:53.257Z,1584.82
2022-11-10T05:26:39.780Z,1585.45
2022-11-10T05:29:27.609Z,1585.22
2022-11-10T05:32:14.420Z,1586.32
2022-11-10T05:35:00.877Z,1590.22
2022-11-10T05:37:47.318Z,1586.57
2022-11-10T05:40:34.521Z,1583.68
2022-11-10T05:43:21.823Z,1584.55
2022-11-10T05:46:10.208Z,1585.75
2022-11-10T05:48:56.938Z,1588.68
2022-11-10T05:51:43.919Z,1589.10
2022-11-10T05:54:30.393Z,1584.32
2022-11-10T05:57:16.919Z,1586.38
2022-11-10T06:00:04.753Z,1587.23
2022-11-10T06:03:03.680Z,1582.90
2022-11-10T06:05:50.576Z,1582.35
2022-11-10T06:08:37.004Z,1588.40
2022-11-10T06:11:23.692Z,1587.80
2022-11-10T06:14:11.844Z,1581.75
2022-11-10T06:16:58.614Z,1586.82
2022-11-10T06:19:47.332Z,1591.63
2022-11-10T06:22:33.786Z,1584.32
2022-11-10T06:25:20.468Z,1589.57
2022-11-10T06:28:08.225Z,1579.88
2022-11-10T06:30:58.989Z,1568.70
2022-11-10T06:33:45.204Z,1574.82
2022-11-10T06:36:33.275Z,1581.50
2022-11-10T06:39:20.089Z,1580.57
2022-11-10T06:42:06.758Z,1579.15
2022-11-10T06:44:53.390Z,1583.60
2022-11-10T06:47:39.891Z,1577.70
2022-11-10T06:50:26.303Z,1576.57
2022-11-10T06:53:14.226Z,1577.65
2022-11-10T06:56:00.914Z,1578.10
2022-11-10T06:58:48.129Z,1582.47
2022-11-10T07:01:34.758Z,1581.13
2022-11-10T07:04:22.068Z,1580.88
2022-11-10T07:07:09.055Z,1587.63
2022-11-10T07:09:57.263Z,1580.47
2022-11-10T07:12:43.801Z,1585.22
2022-11-10T07:15:31.437Z,1585.70
2022-11-10T07:18:18.287Z,1586.20
2022-11-10T07:21:04.777Z,1586.95
2022-11-10T07:23:51.334Z,1587.18
2022-11-10T07:26:39.171Z,1584.68
2022-11-10T07:29:25.839Z,1584.95
2022-11-10T07:32:12.181Z,1589.30
2022-11-10T07:34:58.803Z,1586.43
2022-11-10T07:37:45.271Z,1593.72
2022-11-10T07:40:32.679Z,1592.38
2022-11-10T07:43:21.059Z,1588.93
2022-11-10T07:46:08.117Z,1589.95
2022-11-10T07:48:54.669Z,1583.55
2022-11-10T07:51:43.148Z,1589.43
2022-11-10T07:54:29.905Z,1591.43
2022-11-10T07:57:16.566Z,1587.70
2022-11-10T08:00:05.191Z,1587.07
2022-11-10T08:02:52.436Z,1588.23
2022-11-10T08:05:39.221Z,1586.32
2022-11-10T08:08:25.948Z,1583.88
2022-11-10T08:11:12.624Z,1585.97
2022-11-10T08:13:59.073Z,1592.80
2022-11-10T08:16:47.973Z,1586.78
2022-11-10T08:19:34.537Z,1590.28
2022-11-10T08:22:21.159Z,1590.45
2022-11-10T08:25:08.418Z,1586.43
2022-11-10T08:27:59.936Z,1591.63
2022-11-10T08:30:48.285Z,1587.18
2022-11-10T08:33:36.359Z,1582.65
2022-11-10T08:36:24.039Z,1578.27
2022-11-10T08:39:13.249Z,1579.20
2022-11-10T08:42:04.165Z,1582.60
2022-11-10T08:44:50.684Z,1584.03
2022-11-10T08:47:37.311Z,1578.90
2022-11-10T08:50:25.016Z,1579.10
2022-11-10T08:53:13.952Z,1580.93
2022-11-10T08:56:00.914Z,1580.18
2022-11-10T08:58:53.139Z,1580.68
2022-11-10T09:01:40.209Z,1577.47
2022-11-10T09:04:26.742Z,1573.30
2022-11-10T09:07:14.626Z,1572.25
2022-11-10T09:10:07.274Z,1575.07
2022-11-10T09:12:54.060Z,1580.43
2022-11-10T09:15:42.476Z,1574.07
2022-11-10T09:18:30.025Z,1581.57
2022-11-10T09:21:16.803Z,1583.07
2022-11-10T09:24:05.675Z,1585.22
2022-11-10T09:26:52.933Z,1578.68
2022-11-10T09:29:39.938Z,1576.73
2022-11-10T09:32:26.508Z,1585.10
2022-11-10T09:35:13.236Z,1588.82
2022-11-10T09:38:00.112Z,1591.03
2022-11-10T09:41:01.072Z,1577.30
2022-11-10T09:43:58.327Z,1580.53
2022-11-10T09:46:49.276Z,1582.93
2022-11-10T09:49:39.769Z,1577.65
2022-11-10T09:52:28.566Z,1579.80
2022-11-10T09:55:27.401Z,1578.50
2022-11-10T09:58:15.956Z,1572.25
2022-11-10T10:01:23.225Z,1575.50
2022-11-10T10:04:22.401Z,1575.60
2022-11-10T10:07:14.482Z,1571.90
2022-11-10T10:10:05.581Z,1580.38
2022-11-10T10:13:11.301Z,1572.40
2022-11-10T10:16:10.145Z,1570.85
2022-11-10T10:19:00.820Z,1572.28
2022-11-10T10:22:00.470Z,1572.85
2022-11-10T10:24:49.122Z,1575.35
2022-11-10T10:27:39.636Z,1566.50
2022-11-10T10:30:26.331Z,1571.38
2022-11-10T10:33:18.244Z,1556.75
2022-11-10T10:36:10.779Z,1562.80
2022-11-10T10:39:01.436Z,1568.50
2022-11-10T10:41:48.364Z,1564.72
2022-11-10T10:44:35.283Z,1567.70
2022-11-10T10:47:37.123Z,1570.35
2022-11-10T10:50:33.803Z,1577.90
2022-11-10T10:53:22.408Z,1573.13
2022-11-10T10:56:18.568Z,1576.13
2022-11-10T10:59:06.587Z,1579.53
2022-11-10T11:01:55.227Z,1579.43
2022-11-10T11:04:42.214Z,1581.57
2022-11-10T11:07:30.174Z,1578.50
2022-11-10T11:10:22.527Z,1556.55
2022-11-10T11:13:17.371Z,1542.28
2022-11-10T11:16:07.181Z,1532.28
2022-11-10T11:18:53.937Z,1537.35
2022-11-10T11:21:48.989Z,1537.43
2022-11-10T11:24:43.654Z,1537.83
2022-11-10T11:27:36.103Z,1537.05
2022-11-10T11:30:23.992Z,1539.38
2022-11-10T11:33:33.424Z,1537.53
2022-11-10T11:36:30.617Z,1544.40
2022-11-10T11:39:31.945Z,1542.90
2022-11-10T11:42:34.160Z,1543.30
2022-11-10T11:45:25.502Z,1545.05
2022-11-10T11:48:44.198Z,1542.43
2022-11-10T11:51:40.800Z,1543.22
2022-11-10T11:54:31.868Z,1539.93
2022-11-10T11:57:34.486Z,1548.47
2022-11-10T12:00:25.764Z,1547.25
2022-11-10T12:03:41.297Z,1543.60
2022-11-10T12:06:41.772Z,1540.47
2022-11-10T12:09:41.355Z,1544.40
2022-11-10T12:12:57.860Z,1543.93
2022-11-10T12:15:53.313Z,1546.50
2022-11-10T12:18:49.814Z,1544.30
2022-11-10T12:21:44.613Z,1550.25
2022-11-10T12:24:49.788Z,1537.32
2022-11-10T12:27:41.797Z,1476.57
2022-11-10T12:30:30.675Z,1474.85
2022-11-10T12:33:30.536Z,1472.15
2022-11-10T12:36:20.548Z,1464.43
2022-11-10T12:39:16.473Z,1462.97
2022-11-10T12:42:05.606Z,1453.07
2022-11-10T12:45:18.717Z,1444.88
2022-11-10T12:48:06.505Z,1416.00
2022-11-10T12:51:00.482Z,1455.68
2022-11-10T12:53:49.682Z,1452.75
2022-11-10T12:56:40.630Z,1446.32
2022-11-10T12:59:33.398Z,1469.15
2022-11-10T13:02:35.450Z,1474.55
2022-11-10T13:05:42.027Z,1465.43
2022-11-10T13:08:33.121Z,1473.20
2022-11-10T13:11:28.710Z,1467.55
2022-11-10T13:14:24.810Z,1462.28
2022-11-10T13:17:33.619Z,1453.82
2022-11-10T13:20:49.766Z,1452.53
2022-11-10T13:24:09.979Z,1463.55
2022-11-10T13:26:57.932Z,1439.13
2022-11-10T13:29:58.851Z,1455.03
2022-11-10T13:32:45.389Z,1461.85
2022-11-10T13:35:55.828Z,1469.20
2022-11-10T13:38:44.334Z,1469.47
2022-11-10T13:41:33.506Z,1471.13
2022-11-10T13:44:28.543Z,1471.47
2022-11-10T13:47:40.953Z,1471.75
2022-11-10T13:50:51.907Z,1476.57
2022-11-10T13:53:50.562Z,1469.70
2022-11-10T13:56:57.600Z,1478.10
2022-11-10T13:59:49.323Z,1486.55
2022-11-10T14:02:54.141Z,1501.55
2022-11-10T14:06:04.479Z,1506.32
2022-11-10T14:08:57.487Z,1504.40
2022-11-10T14:11:50.146Z,1511.18
2022-11-10T14:14:47.088Z,1515.43
2022-11-10T14:17:40.312Z,1517.30
2022-11-10T14:20:33.863Z,1523.75
2022-11-10T14:23:25.880Z,1519.68
2022-11-10T14:26:23.971Z,1513.07
2022-11-10T14:29:30.393Z,1521.43
2022-11-10T14:32:21.297Z,1520.35
2022-11-10T14:35:20.410Z,1520.68
2022-11-10T14:38:20.307Z,1513.90
2022-11-10T14:41:15.531Z,1520.57
2022-11-10T14:44:05.915Z,1529.40
2022-11-10T14:46:52.730Z,1519.18
2022-11-10T14:49:39.524Z,1522.85
2022-11-10T14:52:25.893Z,1524.03
2022-11-10T14:55:17.740Z,1517.68
2022-11-10T14:58:09.209Z,1519.68
2022-11-10T15:00:57.626Z,1518.20
2022-11-10T15:03:44.903Z,1514.78
2022-11-10T15:06:32.114Z,1518.90
2022-11-10T15:09:25.516Z,1513.90
2022-11-10T15:12:22.557Z,1507.55
2022-11-10T15:15:24.455Z,1509.70
2022-11-10T15:18:27.355Z,1503.88
2022-11-10T15:21:14.540Z,1505.80
2022-11-10T15:24:03.917Z,1495.63
2022-11-10T15:26:50.920Z,1500.57
2022-11-10T15:29:37.971Z,1487.27
2022-11-10T15:32:31.946Z,1468.07
2022-11-10T15:35:30.107Z,1461.80
2022-11-10T15:38:31.505Z,1453.70
2022-11-10T15:41:27.365Z,1463.95
2022-11-10T15:44:20.131Z,1473.03
2022-11-10T15:47:07.760Z,1477.03
2022-11-10T15:49:55.030Z,1477.93
2022-11-10T15:52:42.897Z,1483.95
2022-11-10T15:55:31.599Z,1485.15
2022-11-10T15:58:22.487Z,1485.88
2022-11-10T16:01:12.900Z,1497.03
2022-11-10T16:03:59.929Z,1496.15
2022-11-10T16:06:47.145Z,1490.10
2022-11-10T16:09:35.648Z,1487.75
2022-11-10T16:12:23.670Z,1484.50
2022-11-10T16:15:20.845Z,1486.40
2022-11-10T16:18:12.924Z,1490.28
2022-11-10T16:20:59.825Z,1493.03
2022-11-10T16:23:46.161Z,1563.72
2022-11-10T16:26:35.299Z,1581.18
2022-11-10T16:29:22.312Z,1588.00
2022-11-10T16:32:10.840Z,1588.70
2022-11-10T16:34:57.450Z,1585.18
2022-11-10T16:37:44.184Z,1585.35
2022-11-10T16:40:30.947Z,1586.05
2022-11-10T16:43:19.210Z,1585.07
2022-11-10T16:46:14.761Z,1588.40
2022-11-10T16:49:02.353Z,1580.78
2022-11-10T16:51:49.387Z,1584.70
2022-11-10T16:54:36.129Z,1591.60
2022-11-10T16:57:22.632Z,1596.70
2022-11-10T17:00:12.073Z,1602.22
2022-11-10T17:03:03.332Z,1605.60
2022-11-10T17:05:50.356Z,1612.40
2022-11-10T17:08:37.415Z,1611.78
2022-11-10T17:11:24.069Z,1604.07
2022-11-10T17:14:12.272Z,1607.75
2022-11-10T17:17:00.516Z,1612.65
2022-11-10T17:19:49.185Z,1618.95
2022-11-10T17:22:36.441Z,1621.28
2022-11-10T17:25:25.935Z,1619.07
2022-11-10T17:28:14.424Z,1613.68
2022-11-10T17:31:00.915Z,1616.97
2022-11-10T17:33:49.287Z,1637.13
2022-11-10T17:36:36.208Z,1618.57
2022-11-10T17:39:23.572Z,1617.60
2022-11-10T17:42:13.473Z,1620.82
2022-11-10T17:45:00.254Z,1628.72
2022-11-10T17:47:48.007Z,1622.15
2022-11-10T17:50:36.912Z,1621.32
2022-11-10T17:53:25.706Z,1621.93
2022-11-10T17:56:13.654Z,1626.70
2022-11-10T17:59:01.143Z,1634.28
2022-11-10T18:01:47.879Z,1629.95
2022-11-10T18:04:34.682Z,1631.57
2022-11-10T18:07:22.494Z,1629.22
2022-11-10T18:10:12.366Z,1633.72
2022-11-10T18:12:59.184Z,1634.55
2022-11-10T18:15:47.235Z,1636.43
2022-11-10T18:18:34.078Z,1633.93
2022-11-10T18:21:20.658Z,1639.03
2022-11-10T18:24:08.785Z,1637.07
2022-11-10T18:26:55.399Z,1640.13
2022-11-10T18:29:41.864Z,1645.28
2022-11-10T18:32:28.346Z,1644.25
2022-11-10T18:35:14.867Z,1646.53
2022-11-10T18:38:02.530Z,1646.25
2022-11-10T18:40:50.431Z,1645.03
2022-11-10T18:43:37.268Z,1645.40
2022-11-10T18:46:24.021Z,1646.45
2022-11-10T18:49:10.709Z,1648.95
2022-11-10T18:51:57.495Z,1647.85
2022-11-10T18:54:44.179Z,1648.20
2022-11-10T18:57:31.887Z,1648.13
2022-11-10T19:00:18.897Z,1646.65
2022-11-10T19:03:05.746Z,1647.40
2022-11-10T19:05:58.371Z,1647.43
2022-11-10T19:08:45.817Z,1646.10
2022-11-10T19:11:33.895Z,1645.25
2022-11-10T19:14:22.183Z,1643.28
2022-11-10T19:17:08.706Z,1646.57
2022-11-10T19:19:56.819Z,1647.30
2022-11-10T19:22:43.627Z,1646.57
2022-11-10T19:25:30.237Z,1646.20
2022-11-10T19:28:16.724Z,1649.90
2022-11-10T19:31:05.980Z,1648.20
2022-11-10T19:33:55.123Z,1651.53
2022-11-10T19:36:42.068Z,1648.93
2022-11-10T19:39:29.188Z,1650.35
2022-11-10T19:42:17.331Z,1645.35
2022-11-10T19:45:04.524Z,1647.10
2022-11-10T19:47:52.659Z,1651.30
2022-11-10T19:50:39.411Z,1649.47
2022-11-10T19:53:26.017Z,1647.53
2022-11-10T19:56:16.116Z,1642.28
2022-11-10T19:59:02.956Z,1648.85
2022-11-10T20:01:49.546Z,1649.40
2022-11-10T20:04:58.706Z,1646.82
2022-11-10T20:08:07.484Z,1650.10
2022-11-10T20:11:00.430Z,1650.10
2022-11-10T20:13:51.972Z,1650.23
2022-11-10T20:16:41.277Z,1651.18
2022-11-10T20:19:29.168Z,1652.70
2022-11-10T20:22:16.965Z,1646.13
2022-11-10T20:25:03.903Z,1648.13
2022-11-10T20:27:50.580Z,1644.35
2022-11-10T20:30:38.649Z,1645.80
2022-11-10T20:33:25.603Z,1648.47
2022-11-10T20:36:19.888Z,1650.07
2022-11-10T20:39:08.183Z,1650.07
2022-11-10T20:41:54.996Z,1650.47
2022-11-10T20:44:41.729Z,1651.20
2022-11-10T20:47:29.885Z,1650.50
2022-11-10T20:50:20.475Z,1650.47
2022-11-10T20:53:11.247Z,1650.03
2022-11-10T20:56:02.574Z,1654.28
2022-11-10T20:58:51.831Z,1651.47
2022-11-10T21:01:38.671Z,1649.17
2022-11-10T21:04:25.915Z,1645.57
2022-11-10T21:07:12.935Z,1645.80
2022-11-10T21:09:59.708Z,1648.50
2022-11-10T21:12:50.391Z,1647.30
2022-11-10T21:15:39.696Z,1648.63
2022-11-10T21:18:29.319Z,1647.80
2022-11-10T21:21:21.766Z,1645.33
2022-11-10T21:24:10.215Z,1649.90
2022-11-10T21:26:57.716Z,1650.10
2022-11-10T21:29:45.764Z,1650.55
2022-11-10T21:32:32.812Z,1652.25
2022-11-10T21:35:19.897Z,1651.50
2022-11-10T21:38:07.064Z,1656.82
2022-11-10T21:40:53.418Z,1658.30
2022-11-10T21:43:40.276Z,1002.58
2022-11-10T21:46:28.251Z,1144.85
2022-11-10T21:49:14.579Z,1638.03
2022-11-10T21:52:00.989Z,1652.07
2022-11-10T21:54:47.573Z,1652.57
2022-11-10T21:57:34.761Z,1655.28
2022-11-10T22:00:21.636Z,1655.05
2022-11-10T22:03:09.685Z,1651.18
2022-11-10T22:05:56.103Z,1652.50
2022-11-10T22:08:44.095Z,1653.97
2022-11-10T22:11:48.102Z,1020.27
2022-11-10T22:14:52.287Z,1142.45
2022-11-10T22:17:56.418Z,1641.50
2022-11-10T22:20:44.614Z,1644.80
2022-11-10T22:23:48.718Z,1647.03
2022-11-10T22:26:35.568Z,1647.50
2022-11-10T22:29:22.980Z,1647.05
2022-11-10T22:32:11.158Z,1647.60
2022-11-10T22:34:57.698Z,1646.28
2022-11-10T22:37:45.660Z,1648.80
2022-11-10T22:40:49.733Z,1648.93
2022-11-10T22:43:54.133Z,1647.20
2022-11-10T22:46:42.678Z,1644.15
2022-11-10T22:49:29.305Z,1645.13
2022-11-10T22:52:15.668Z,1650.38
2022-11-10T22:55:03.760Z,1646.23
2022-11-10T22:57:53.127Z,1647.50
2022-11-10T23:00:39.940Z,1647.40
2022-11-10T23:03:26.505Z,1646.10
2022-11-10T23:06:13.954Z,1648.15
2022-11-10T23:09:00.734Z,1646.77
2022-11-10T23:11:48.637Z,978.92
2022-11-10T23:14:35.505Z,1029.50
2022-11-10T23:17:21.937Z,1120.25
2022-11-10T23:20:09.639Z,1098.65
2022-11-10T23:22:57.108Z,1631.20
2022-11-10T23:25:44.009Z,1638.85
2022-11-10T23:28:34.138Z,1642.05
2022-11-10T23:31:23.173Z,1646.43
2022-11-10T23:34:09.759Z,1645.38
2022-11-10T23:36:56.353Z,1646.25
2022-11-10T23:39:42.830Z,1643.25
2022-11-10T23:42:32.966Z,1640.10
2022-11-10T23:45:21.384Z,1640.27
2022-11-10T23:48:08.376Z,1641.57
2022-11-10T23:50:55.856Z,1636.23
2022-11-10T23:53:42.792Z,1640.63
2022-11-10T23:56:29.346Z,1637.28
2022-11-10T23:59:16.002Z,1642.15
